Time;durP1;ratioP1;P1;durP2;ratioP2;P2;SDS_P1;SDS_P2;PMS_P1;PMS_P2;Temp;Humidity;BMP_temperature;BMP_pressure;BME280_temperature;BME280_humidity;BME280_pressure;Samples;Min_cycle;Max_cycle;Signal;HPM_P1;HPM_P2
2022/02/10 00:04:25;;;;;;;3.47;1.00;;;;;;;-145.69;100.00;73434.56;5096038;28;20235;-76
2022/02/10 00:17:47;;;;;;;2.50;1.20;;;;;;;-145.69;100.00;73392.75;5060943;28;20198;-75
2022/02/10 00:20:22;;;;;;;1.40;0.87;;;;;;;-145.69;100.00;73426.59;5095512;28;20222;-75
2022/02/10 00:23:11;;;;;;;1.83;1.00;;;;;;;-145.69;100.00;73452.47;5095115;28;20194;-75
2022/02/10 00:34:13;;;;;;;1.83;1.10;;;;;;;-145.69;100.00;73480.34;5094070;28;20663;-76
2022/02/10 00:36:44;;;;;;;3.60;1.10;;;;;;;-145.69;100.00;73438.53;5095227;28;20206;-76
2022/02/10 00:39:25;;;;;;;2.00;1.10;;;;;;;-145.69;100.00;73424.59;5095377;28;20198;-76
2022/02/10 00:41:52;;;;;;;1.13;0.90;;;;;;;-145.69;100.00;73418.63;5094547;28;20229;-75
2022/02/10 00:44:20;;;;;;;1.60;0.90;;;;;;;-145.69;100.00;73402.72;5095145;28;20202;-76
2022/02/10 00:46:46;;;;;;;2.13;1.10;;;;;;;-145.69;100.00;73388.78;5094296;28;20558;-76
2022/02/10 00:49:13;;;;;;;1.60;0.93;;;;;;;-145.69;100.00;73418.63;5095126;28;20207;-76
2022/02/10 00:51:41;;;;;;;2.03;1.43;;;;;;;-145.69;100.00;73458.44;5094849;28;20202;-76
2022/02/10 00:54:07;;;;;;;1.37;0.80;;;;;;;-145.69;100.00;73414.66;5093511;28;20705;-76
2022/02/10 00:56:34;;;;;;;2.90;1.17;;;;;;;-145.69;100.00;73412.66;5094839;28;20198;-76
2022/02/10 00:59:11;;;;;;;3.73;1.20;;;;;;;-145.69;100.00;73396.72;5094975;28;20197;-75
2022/02/10 01:07:14;;;;;;;3.77;0.97;;;;;;;-145.69;100.00;73376.81;5094285;28;20603;-76
2022/02/10 01:12:41;;;;;;;0.80;0.80;;;;;;;-145.69;100.00;73388.78;5094712;28;20255;-76
2022/02/10 01:31:35;;;;;;;3.80;1.00;;;;;;;-145.69;100.00;73394.75;5093842;28;20227;-75
2022/02/10 01:34:03;;;;;;;1.37;1.00;;;;;;;-145.69;100.00;73412.66;5093776;28;20695;-75
2022/02/10 01:36:30;;;;;;;2.83;1.20;;;;;;;-145.69;100.00;73428.59;5093850;28;20194;-75
2022/02/10 01:38:57;;;;;;;3.90;1.17;;;;;;;-145.69;100.00;73434.56;5094121;28;20254;-75
2022/02/10 01:58:11;;;;;;;1.60;1.03;;;;;;;-145.69;98.63;73303.16;5093271;28;20197;-76
2022/02/10 02:03:25;;;;;;;2.87;0.90;;;;;;;-145.69;99.99;73315.13;5093518;28;20549;-75
2022/02/10 02:06:03;;;;;;;2.83;1.50;;;;;;;-145.69;100.00;73311.13;5093781;28;20198;-75
2022/02/10 02:08:34;;;;;;;1.47;0.90;;;;;;;-145.69;98.17;73315.13;5093519;28;20233;-75
2022/02/10 02:11:02;;;;;;;1.90;1.10;;;;;;;-145.69;99.89;73325.06;5093825;28;20564;-75
2022/02/10 02:13:28;;;;;;;7.33;1.20;;;;;;;-145.69;100.00;73317.09;5093409;28;20194;-75
2022/02/10 02:15:55;;;;;;;2.70;1.20;;;;;;;-145.69;100.00;73346.97;5093440;28;20202;-75
2022/02/10 02:18:22;;;;;;;1.93;1.07;;;;;;;-145.69;100.00;73354.94;5093202;28;20205;-75
2022/02/10 02:20:51;;;;;;;3.63;1.40;;;;;;;-145.69;100.00;73356.91;5093470;28;20264;-75
2022/02/10 02:23:20;;;;;;;1.47;0.80;;;;;;;-145.69;100.00;73339.00;5092556;28;20234;-75
2022/02/10 02:25:50;;;;;;;3.03;1.10;;;;;;;-145.69;98.49;73307.16;5093025;28;20573;-75
2022/02/10 02:28:17;;;;;;;3.67;0.90;;;;;;;-145.69;99.19;73325.06;5093131;28;20212;-76
2022/02/10 02:30:48;;;;;;;3.07;1.10;;;;;;;-145.69;97.56;73317.09;5093268;28;20610;-76
2022/02/10 02:33:51;;;;;;;2.50;1.20;;;;;;;-145.69;95.54;73285.25;5093328;28;20206;-75
2022/02/10 02:39:34;;;;;;;2.43;0.80;;;;;;;-145.69;98.65;73269.31;5093352;28;20202;-76
2022/02/10 03:04:42;;;;;;;1.70;1.10;;;;;;;-145.69;100.00;73299.19;5092837;28;20281;-76
2022/02/10 03:07:13;;;;;;;1.23;1.10;;;;;;;-145.69;100.00;73297.19;5092091;28;20259;-76
2022/02/10 03:09:43;;;;;;;1.90;1.00;;;;;;;-145.69;100.00;73309.13;5094770;28;20561;-75
2022/02/10 03:12:12;;;;;;;3.20;1.50;;;;;;;-145.69;100.00;73321.09;5096823;28;20220;-75
2022/02/10 03:14:46;;;;;;;4.23;1.80;;;;;;;-145.69;100.00;73341.00;5097073;28;20198;-76
2022/02/10 03:17:40;;;;;;;2.27;1.43;;;;;;;-145.69;100.00;73342.97;5096196;28;20198;-75
2022/02/10 03:20:20;;;;;;;2.70;1.33;;;;;;;-145.69;100.00;73335.03;5096722;28;20201;-75
2022/02/10 03:59:41;;;;;;;4.37;1.60;;;;;;;-145.69;100.00;73337.00;5095728;28;20201;-75
2022/02/10 04:01:50;;;;;;;5.43;1.23;;;;;;;-145.69;100.00;73430.56;5075550;28;20300;-75
2022/02/10 04:04:33;;;;;;;4.30;1.30;;;;;;;-145.69;100.00;73414.66;5075215;28;20290;-76
2022/02/10 04:12:56;;;;;;;3.27;1.63;;;;;;;-145.69;100.00;73348.97;5074976;28;20706;-75
2022/02/10 04:15:31;;;;;;;3.20;1.40;;;;;;;-145.69;100.00;73317.09;5075499;28;20279;-76
2022/02/10 04:20:54;;;;;;;1.47;1.30;;;;;;;-145.69;100.00;73313.13;5055459;28;20225;-75
2022/02/10 04:23:35;;;;;;;2.63;1.23;;;;;;;-145.69;100.00;73311.13;5075298;28;20230;-76
2022/02/10 04:26:15;;;;;;;2.67;1.27;;;;;;;-145.69;100.00;73342.97;5075492;28;20287;-76
2022/02/10 04:28:59;;;;;;;2.90;1.40;;;;;;;-145.69;100.00;73344.97;5075139;28;20203;-75
2022/02/10 04:56:33;;;;;;;2.20;1.23;;;;;;;-145.69;100.00;73352.94;5094807;28;20229;-75
2022/02/10 04:59:16;;;;;;;4.63;1.87;;;;;;;-145.69;100.00;73301.19;5095016;28;20629;-76
2022/02/10 05:01:59;;;;;;;7.20;1.53;;;;;;;-145.69;100.00;73277.28;5094899;28;20230;-75
2022/02/10 05:07:54;;;;;;;4.07;1.37;;;;;;;-145.69;100.00;73273.31;5094492;28;20560;-76
2022/02/10 05:14:28;;;;;;;5.47;1.67;;;;;;;-145.69;100.00;73301.19;5094660;28;20236;-76
2022/02/10 05:24:47;;;;;;;3.57;1.70;;;;;;;-145.69;100.00;73209.59;5073948;28;20586;-76
2022/02/10 05:32:55;;;;;;;6.37;2.37;;;;;;;-145.69;100.00;73167.78;5073690;28;20561;-76
2022/02/10 05:35:28;;;;;;;3.27;2.17;;;;;;;-145.69;100.00;73185.72;5073813;28;20564;-76
2022/02/10 05:38:03;;;;;;;4.10;1.60;;;;;;;-145.69;100.00;73233.50;5073833;28;20293;-75
2022/02/10 05:41:03;;;;;;;5.60;2.00;;;;;;;-145.69;100.00;73247.41;5073848;28;20205;-75
2022/02/10 05:43:31;;;;;;;5.90;2.07;;;;;;;-145.69;100.00;73233.50;5073570;28;20217;-76
2022/02/10 05:46:12;;;;;;;8.60;2.80;;;;;;;-145.69;100.00;73211.59;5073728;28;20293;-76
2022/02/10 05:54:18;;;;;;;4.27;2.30;;;;;;;-145.69;100.00;73161.81;5042431;28;20251;-76
2022/02/10 05:56:57;;;;;;;4.97;2.33;;;;;;;-145.69;100.00;73179.75;5073379;28;20289;-76
2022/02/10 06:02:35;;;;;;;4.73;1.93;;;;;;;-145.69;100.00;73149.88;5064037;28;20229;-76
2022/02/10 06:49:42;;;;;;;8.03;2.53;;;;;;;-145.69;94.21;72960.75;5092203;28;20194;-76
2022/02/10 06:52:16;;;;;;;9.90;2.90;;;;;;;-145.69;94.48;72952.78;5092075;28;20428;-76
2022/02/10 06:54:57;;;;;;;5.57;2.73;;;;;;;-145.69;88.32;72843.31;5092290;28;20487;-76
2022/02/10 06:57:56;;;;;;;7.77;2.30;;;;;;;-145.69;89.65;72875.16;5092791;28;20205;-77
2022/02/10 07:06:23;;;;;;;6.23;2.73;;;;;;;-145.69;91.76;72911.00;5092968;28;20193;-77
2022/02/10 07:14:43;;;;;;;7.23;2.97;;;;;;;-145.69;96.19;72990.63;5092496;28;20552;-77
2022/02/10 07:43:14;;;;;;;8.37;2.93;;;;;;;-145.69;97.59;72990.63;5092625;28;20213;-77
2022/02/10 07:47:57;;;;;;;9.63;3.17;;;;;;;-145.69;96.46;72968.72;5091853;28;20200;-77
2022/02/10 07:53:49;;;;;;;7.30;2.67;;;;;;;-145.69;96.21;72970.72;5030644;28;20207;-77
2022/02/10 07:56:40;;;;;;;4.47;2.27;;;;;;;-145.69;97.18;72974.69;5032194;28;20227;-77
2022/02/10 07:59:30;;;;;;;8.43;2.20;;;;;;;-145.69;97.92;72974.69;5082504;28;20206;-77
2022/02/10 08:55:03;;;;;;;5.87;2.70;;;;;;;-145.69;81.38;72626.34;5083452;28;20271;-77
2022/02/10 08:57:42;;;;;;;9.50;2.57;;;;;;;-145.69;78.33;72580.56;5094911;28;20256;-78
2022/02/10 09:00:54;;;;;;;6.90;2.57;;;;;;;-145.69;79.05;72558.66;5094717;28;20674;-77
2022/02/10 09:03:36;;;;;;;4.93;2.13;;;;;;;-145.69;77.05;72542.75;5095047;28;20233;-77
2022/02/10 09:06:10;;;;;;;9.57;2.93;;;;;;;-145.69;77.47;72534.78;5094624;28;20213;-78
2022/02/10 09:09:28;;;;;;;5.83;2.30;;;;;;;-145.69;76.58;72518.88;5094528;28;20198;-77
2022/02/10 09:18:11;;;;;;;5.47;2.17;;;;;;;-145.69;76.35;72494.97;5060889;28;20201;-78
2022/02/10 09:20:24;;;;;;;9.93;2.60;;;;;;;-145.69;75.71;72469.09;5094585;28;20200;-76
2022/02/10 09:48:05;;;;;;;6.33;2.63;;;;;;;-145.69;68.71;72341.72;5073954;28;20255;-79
2022/02/10 09:56:11;;;;;;;10.67;2.60;;;;;;;-145.69;68.84;72317.84;5073930;28;20569;-77
2022/02/10 09:58:57;;;;;;;9.13;2.63;;;;;;;-145.69;68.57;72313.84;5073707;28;20210;-78
2022/02/10 10:01:31;;;;;;;9.93;2.77;;;;;;;-145.69;68.69;72309.88;5073690;28;20201;-77
2022/02/10 10:04:04;;;;;;;11.07;3.37;;;;;;;-145.69;65.61;72303.91;5073807;28;20199;-76
2022/02/10 10:06:56;;;;;;;7.90;2.77;;;;;;;-145.69;66.73;72297.94;5073717;28;20202;-77
2022/02/10 10:09:44;;;;;;;8.50;2.90;;;;;;;-145.69;67.47;72303.91;5073664;28;20210;-79
2022/02/10 10:15:18;;;;;;;10.07;2.90;;;;;;;-145.69;66.60;72297.94;5072059;28;20279;-79
2022/02/10 10:18:29;;;;;;;7.70;2.67;;;;;;;-145.69;67.11;72282.00;5071565;28;20289;-79
2022/02/10 10:21:16;;;;;;;8.17;3.10;;;;;;;-145.69;67.43;72282.00;5072732;28;20253;-79
2022/02/10 10:24:04;;;;;;;7.30;3.20;;;;;;;-145.69;67.80;72286.00;5079607;28;20229;-79
2022/02/10 10:26:50;;;;;;;4.90;2.73;;;;;;;-145.69;67.80;72280.03;5093693;28;20202;-79
2022/02/10 10:55:10;;;;;;;6.57;2.70;;;;;;;-145.69;65.87;72198.41;5090342;28;20534;-79
2022/02/10 10:57:41;;;;;;;7.73;3.63;;;;;;;-145.69;67.90;72194.44;5093064;28;20261;-79
2022/02/10 11:00:55;;;;;;;7.07;2.60;;;;;;;-145.69;66.61;72168.56;5093291;28;20213;-79
2022/02/10 11:03:43;;;;;;;11.93;3.03;;;;;;;-145.69;68.93;72162.59;5093139;28;20221;-79
2022/02/10 11:37:26;;;;;;;5.43;2.30;;;;;;;-145.69;64.19;72079.00;5096768;28;20201;-80
2022/02/10 11:40:15;;;;;;;8.00;2.47;;;;;;;-145.69;62.98;72055.13;5096707;28;20213;-80
2022/02/10 11:42:55;;;;;;;10.03;2.87;;;;;;;-145.69;63.96;72041.19;5098148;28;20221;-77
2022/02/10 12:01:25;;;;;;;11.60;3.73;;;;;;;-145.69;65.65;72059.09;5096651;28;20197;-78
2022/02/10 13:23:20;;;;;;;12.77;3.50;;;;;;;-145.69;71.59;72200.41;5090072;28;20241;-81
2022/02/10 13:48:53;;;;;;;15.57;4.10;;;;;;;-145.69;77.51;72347.69;5082571;28;20721;-80
2022/02/10 14:13:23;;;;;;;15.37;4.10;;;;;;;-145.69;79.15;72391.47;5075459;28;20616;-81
2022/02/10 14:16:02;;;;;;;9.77;4.10;;;;;;;-145.69;80.15;72393.47;5075463;28;20202;-81
2022/02/10 14:18:31;;;;;;;10.57;3.97;;;;;;;-145.69;79.34;72381.53;5075227;28;20202;-81
2022/02/10 14:21:04;;;;;;;10.67;4.37;;;;;;;-145.69;79.39;72375.56;5075186;28;20257;-81
2022/02/10 14:29:04;;;;;;;17.97;4.80;;;;;;;-145.69;81.46;72409.38;5064190;28;20201;-79
2022/02/10 14:31:30;;;;;;;11.47;4.47;;;;;;;-145.69;80.89;72415.38;5074995;28;20202;-81
2022/02/10 14:33:59;;;;;;;12.63;4.40;;;;;;;-145.69;80.99;72409.38;5074472;28;20195;-81
2022/02/10 14:36:37;;;;;;;9.53;3.87;;;;;;;-145.69;79.44;72405.41;5074210;28;20283;-78
2022/02/10 14:39:23;;;;;;;10.03;4.83;;;;;;;-145.69;79.94;72409.38;5074838;28;20202;-80
2022/02/10 15:18:02;;;;;;;11.03;5.23;;;;;;;-145.69;85.28;72496.97;5074185;28;20226;-81
2022/02/10 15:21:03;;;;;;;9.00;4.50;;;;;;;-145.69;85.25;72500.94;5073874;28;20260;-81
2022/02/10 16:18:44;;;;;;;9.87;4.10;;;;;;;-145.69;86.35;72534.78;5078887;28;20251;-81
2022/02/10 16:21:14;;;;;;;7.07;3.50;;;;;;;-145.69;86.46;72528.81;5110664;28;20228;-81
2022/02/10 16:23:41;;;;;;;10.20;3.87;;;;;;;-145.69;87.56;72548.72;5110426;28;20227;-81
2022/02/10 16:26:15;;;;;;;9.97;3.80;;;;;;;-145.69;88.76;72562.66;5110735;28;20208;-81
2022/02/10 16:28:46;;;;;;;12.07;3.63;;;;;;;-145.69;89.80;72574.59;5110496;28;20322;-81
2022/02/10 16:31:15;;;;;;;14.13;4.00;;;;;;;-145.69;90.32;72590.53;5110744;28;20216;-81
2022/02/10 16:33:43;;;;;;;12.10;3.73;;;;;;;-145.69;91.39;72592.50;5110353;28;20206;-80
2022/02/10 16:36:16;;;;;;;8.87;3.70;;;;;;;-145.69;91.32;72616.41;5111652;28;20233;-80
2022/02/10 16:38:43;;;;;;;6.53;3.40;;;;;;;-145.69;91.79;72632.31;5128518;28;20254;-80
2022/02/10 16:41:10;;;;;;;11.17;4.73;;;;;;;-145.69;92.98;72644.25;5130687;28;20208;-81
2022/02/10 16:43:37;;;;;;;6.27;3.27;;;;;;;-145.69;92.55;72648.25;5130582;28;20212;-80
2022/02/10 16:46:05;;;;;;;10.63;3.53;;;;;;;-145.69;92.32;72648.25;5130497;28;20196;-80
2022/02/10 16:48:33;;;;;;;6.57;3.03;;;;;;;-145.69;93.41;72648.25;5120687;28;20201;-81
2022/02/10 16:51:00;;;;;;;8.83;4.17;;;;;;;-145.69;93.71;72660.19;5109776;28;20729;-81
2022/02/10 16:53:29;;;;;;;8.73;3.78;;;;;;;-145.69;93.55;72656.22;5108872;28;20439;-81
2022/02/10 16:56:01;;;;;;;6.30;3.10;;;;;;;-145.69;93.53;72648.25;5109581;28;20263;-80
2022/02/10 16:58:35;;;;;;;8.87;4.20;;;;;;;-145.69;93.77;72662.19;5109764;28;20251;-81
2022/02/10 17:01:16;;;;;;;5.97;2.80;;;;;;;-145.69;93.46;72664.16;5110762;28;20189;-80
2022/02/10 17:04:04;;;;;;;8.73;3.80;;;;;;;-145.69;92.69;72654.22;5109788;28;20197;-80
2022/02/10 17:15:59;;;;;;;4.97;2.87;;;;;;;-145.69;93.82;72680.09;5095938;28;20229;-80
2022/02/10 17:18:37;;;;;;;7.03;2.57;;;;;;;-145.69;93.36;72682.09;5095586;28;20739;-80
2022/02/10 17:21:26;;;;;;;9.33;2.77;;;;;;;-145.69;93.75;72700.00;5094853;28;20216;-81
2022/02/10 17:26:48;;;;;;;5.83;2.37;;;;;;;-145.69;94.58;72705.97;5095161;28;20221;-79
2022/02/10 17:29:28;;;;;;;6.07;3.03;;;;;;;-145.69;94.98;72701.97;5095280;28;20232;-80
2022/02/10 17:32:08;;;;;;;7.57;3.60;;;;;;;-145.69;96.06;72703.97;5110320;28;20667;-80
2022/02/10 17:35:05;;;;;;;7.60;3.40;;;;;;;-145.69;96.27;72715.91;5093669;28;20205;-80
2022/02/10 17:51:43;;;;;;;6.93;2.90;;;;;;;-145.69;93.63;72688.06;5095073;28;20702;-79
2022/02/10 17:54:12;;;;;;;4.23;2.50;;;;;;;-145.69;95.22;72692.03;5097474;28;20193;-80
2022/02/10 17:56:39;;;;;;;15.97;5.00;;;;;;;-145.69;96.63;72700.00;5114840;28;20233;-79
2022/02/10 17:59:07;;;;;;;8.30;3.87;;;;;;;-145.69;96.98;72700.00;5115063;28;20197;-79
2022/02/10 18:01:34;;;;;;;7.17;3.80;;;;;;;-145.69;97.45;72705.97;5114811;28;20201;-81
2022/02/10 18:04:01;;;;;;;5.80;3.20;;;;;;;-145.69;98.07;72711.94;5114735;28;20201;-79
2022/02/10 18:06:29;;;;;;;6.53;3.17;;;;;;;-145.69;96.20;72700.00;5115181;28;20197;-78
2022/02/10 18:14:48;;;;;;;7.93;4.07;;;;;;;-145.69;95.69;72703.97;5093672;28;20320;-82
2022/02/10 18:17:21;;;;;;;8.57;3.77;;;;;;;-145.69;96.70;72703.97;5114927;28;20255;-82
2022/02/10 18:19:54;;;;;;;8.13;4.77;;;;;;;-145.69;95.58;72698.00;5114130;28;20201;-80
2022/02/10 18:22:42;;;;;;;14.37;3.93;;;;;;;-145.69;94.67;72700.00;5113936;28;20224;-82
2022/02/10 18:25:44;;;;;;;8.07;4.03;;;;;;;-145.69;94.89;72701.97;5114559;28;20254;-80
2022/02/10 18:28:37;;;;;;;11.50;5.23;;;;;;;-145.69;95.63;72705.97;5114653;28;20682;-82
2022/02/10 18:34:23;;;;;;;13.70;6.67;;;;;;;-145.69;94.52;72703.97;5114561;28;20200;-79
2022/02/10 19:07:08;;;;;;;12.37;4.83;;;;;;;-145.69;95.81;72717.91;5112218;28;20671;-78
2022/02/10 19:09:37;;;;;;;12.73;5.10;;;;;;;-145.69;95.99;72719.91;5107410;28;20201;-79
2022/02/10 19:12:14;;;;;;;11.43;5.37;;;;;;;-145.69;96.30;72723.88;5102480;28;20198;-80
2022/02/10 19:14:41;;;;;;;13.97;4.90;;;;;;;-145.69;96.22;72723.88;5093083;28;20249;-80
2022/02/10 19:17:08;;;;;;;13.27;5.50;;;;;;;-145.69;96.52;72723.88;5112873;28;20232;-78
2022/02/10 19:19:35;;;;;;;11.10;4.57;;;;;;;-145.69;97.70;72723.88;5113715;28;20197;-80
2022/02/10 19:22:01;;;;;;;10.50;4.67;;;;;;;-145.69;97.39;72723.88;5113426;28;20205;-81
2022/02/10 19:24:28;;;;;;;14.37;5.47;;;;;;;-145.69;96.53;72739.81;5113440;28;20204;-81
2022/02/10 19:26:57;;;;;;;11.87;5.03;;;;;;;-145.69;97.03;72739.81;5113427;28;20205;-81
2022/02/10 19:29:25;;;;;;;11.07;4.40;;;;;;;-145.69;96.50;72735.81;5113188;28;20205;-80
2022/02/10 19:31:53;;;;;;;15.77;7.57;;;;;;;-145.69;97.00;72731.84;5113105;28;20201;-80
2022/02/10 19:34:21;;;;;;;12.23;6.50;;;;;;;-145.69;97.75;72735.81;5113302;28;20205;-80
2022/02/10 19:36:49;;;;;;;27.57;12.57;;;;;;;-145.69;97.40;72745.78;5113306;28;20257;-79
2022/02/10 19:39:22;;;;;;;21.03;8.60;;;;;;;-145.69;96.69;72729.84;5113314;28;20205;-79
2022/02/10 19:41:50;;;;;;;28.60;13.67;;;;;;;-145.69;96.60;72723.88;5108414;28;20194;-79
2022/02/10 19:44:17;;;;;;;15.70;6.97;;;;;;;-145.69;94.04;72686.06;5103118;28;20244;-79
2022/02/10 19:46:44;;;;;;;9.43;3.87;;;;;;;-145.69;92.31;72670.13;5095211;28;20205;-79
2022/02/10 19:49:16;;;;;;;10.63;5.17;;;;;;;-145.69;92.71;72668.16;5109510;28;20201;-79
2022/02/10 19:51:45;;;;;;;17.30;6.70;;;;;;;-145.69;93.58;72672.13;5113290;28;20405;-79
2022/02/10 19:54:12;;;;;;;12.13;6.20;;;;;;;-145.69;95.45;72696.00;5113119;28;20197;-79
2022/02/10 19:56:40;;;;;;;12.20;6.03;;;;;;;-145.69;95.42;72700.00;5112627;28;20237;-80
2022/02/10 19:59:07;;;;;;;10.67;4.50;;;;;;;-145.69;94.48;72698.00;5113282;28;20205;-79
2022/02/10 20:01:36;;;;;;;9.47;4.90;;;;;;;-145.69;95.31;72696.00;5093877;28;20603;-80
2022/02/10 20:04:09;;;;;;;7.67;3.50;;;;;;;-145.69;95.93;72696.00;5110406;28;20205;-80
2022/02/10 20:06:43;;;;;;;7.37;3.70;;;;;;;-145.69;96.09;72696.00;5112880;28;20322;-80
2022/02/10 20:09:16;;;;;;;13.73;4.60;;;;;;;-145.69;96.69;72707.97;5112890;28;20252;-79
2022/02/10 20:11:51;;;;;;;8.37;4.43;;;;;;;-145.69;97.42;72707.97;5112988;28;20197;-80
2022/02/10 20:14:18;;;;;;;8.70;4.10;;;;;;;-145.69;97.46;72705.97;5113032;28;20283;-79
2022/02/10 20:16:44;;;;;;;13.27;4.23;;;;;;;-145.69;98.12;72711.94;5112678;28;20232;-81
2022/02/10 20:19:13;;;;;;;7.43;3.93;;;;;;;-145.69;97.57;72715.91;5112766;28;20201;-79
2022/02/10 20:21:42;;;;;;;10.20;3.80;;;;;;;-145.69;98.81;72707.97;5112791;28;20197;-80
2022/02/10 20:24:12;;;;;;;9.13;3.70;;;;;;;-145.69;99.49;72715.91;5113047;28;20220;-80
2022/02/10 20:26:39;;;;;;;8.23;4.47;;;;;;;-145.69;95.86;72696.00;5112828;28;20197;-80
2022/02/10 20:29:13;;;;;;;30.27;8.37;;;;;;;-145.69;96.41;72698.00;5112865;28;20198;-80
2022/02/10 20:31:41;;;;;;;9.43;3.43;;;;;;;-145.69;91.45;72646.25;5112677;28;20671;-81
2022/02/10 20:34:12;;;;;;;21.43;7.23;;;;;;;-145.69;91.32;72634.31;5112622;28;20236;-80
2022/02/10 20:36:43;;;;;;;16.87;5.83;;;;;;;-145.69;93.77;72638.28;5112646;28;20222;-79
2022/02/10 20:39:17;;;;;;;13.90;4.97;;;;;;;-145.69;93.96;72648.25;5112555;28;20664;-80
2022/02/10 20:41:50;;;;;;;11.47;4.47;;;;;;;-145.69;95.39;72650.22;5113769;28;20649;-79
2022/02/10 20:44:24;;;;;;;15.17;6.87;;;;;;;-145.69;95.13;72656.22;5116644;28;20198;-81
2022/02/10 20:46:53;;;;;;;9.00;4.20;;;;;;;-145.69;95.15;72656.22;5115729;28;20204;-80
2022/02/10 20:49:29;;;;;;;9.07;3.73;;;;;;;-145.69;92.92;72640.28;5116660;28;20284;-80
2022/02/10 20:51:57;;;;;;;10.30;4.03;;;;;;;-145.69;93.28;72636.31;5115839;28;20258;-80
2022/02/10 20:54:27;;;;;;;7.43;3.70;;;;;;;-145.69;95.28;72644.25;5116310;28;20205;-79
2022/02/10 20:56:58;;;;;;;8.43;4.27;;;;;;;-145.69;94.89;72640.28;5116538;28;20225;-80
2022/02/10 20:59:30;;;;;;;9.07;3.60;;;;;;;-145.69;95.27;72646.25;5116389;28;20206;-79
2022/02/10 21:02:00;;;;;;;11.57;4.40;;;;;;;-145.69;92.69;72632.31;5116125;28;20197;-79
2022/02/10 21:04:34;;;;;;;10.93;4.53;;;;;;;-145.69;94.13;72632.31;5116251;28;20292;-79
2022/02/10 21:07:12;;;;;;;8.00;4.50;;;;;;;-145.69;93.72;72630.31;5115739;28;20234;-79
2022/02/10 21:09:47;;;;;;;9.13;3.93;;;;;;;-145.69;91.29;72604.44;5116249;28;20280;-78
2022/02/10 21:12:15;;;;;;;6.67;3.80;;;;;;;-145.69;91.12;72598.47;5114561;28;20234;-79
2022/02/10 21:14:45;;;;;;;8.40;4.63;;;;;;;-145.69;91.64;72600.47;5115881;28;20213;-79
2022/02/10 21:17:22;;;;;;;5.67;3.07;;;;;;;-145.69;91.71;72592.50;5115618;28;20236;-80
2022/02/10 21:19:50;;;;;;;13.80;3.87;;;;;;;-145.69;92.90;72588.53;5115694;28;20213;-79
2022/02/10 21:22:19;;;;;;;8.00;3.53;;;;;;;-145.69;91.74;72572.59;5114454;28;20186;-79
2022/02/10 21:24:55;;;;;;;8.53;3.47;;;;;;;-145.69;92.10;72568.63;5114535;28;20652;-79
2022/02/10 21:27:40;;;;;;;9.03;3.43;;;;;;;-145.69;92.75;72576.59;5111890;28;20630;-80
2022/02/10 21:30:08;;;;;;;8.77;3.47;;;;;;;-145.69;90.97;72562.66;5112630;28;20208;-78
2022/02/10 21:32:39;;;;;;;12.50;3.93;;;;;;;-145.69;91.56;72556.69;5113784;28;20202;-79
2022/02/10 21:35:18;;;;;;;8.73;3.97;;;;;;;-145.69;91.39;72540.75;5112246;28;20190;-79
2022/02/10 21:37:54;;;;;;;12.80;3.80;;;;;;;-145.69;90.89;72528.81;5108026;28;20274;-79
2022/02/10 21:40:33;;;;;;;7.67;3.60;;;;;;;-145.69;91.45;72532.78;5110678;28;20640;-79
2022/02/10 21:52:36;;;;;;;9.10;3.63;;;;;;;-145.69;92.55;72528.81;5111093;28;20205;-78
2022/02/10 21:57:20;;;;;;;9.10;4.13;;;;;;;-145.69;95.42;72552.69;5115428;28;20357;-78
2022/02/10 22:00:15;;;;;;;12.30;4.07;;;;;;;-145.69;95.27;72540.75;5115023;28;20193;-78
2022/02/10 22:08:47;;;;;;;11.00;4.20;;;;;;;-145.69;94.86;72524.84;5091739;28;20284;-77
2022/02/10 22:11:28;;;;;;;14.07;3.80;;;;;;;-145.69;96.66;72530.81;5114157;28;20207;-78
2022/02/10 22:16:52;;;;;;;8.07;3.33;;;;;;;-145.69;95.72;72528.81;5114718;28;20316;-79
2022/02/10 22:19:21;;;;;;;11.23;3.97;;;;;;;-145.69;94.14;72510.91;5094834;28;20230;-79
2022/02/10 22:21:51;;;;;;;9.97;3.27;;;;;;;-145.69;93.18;72502.94;5094447;28;20195;-79
2022/02/10 22:24:18;;;;;;;7.57;3.43;;;;;;;-145.69;93.61;72504.94;5094364;28;20199;-78
2022/02/10 22:26:46;;;;;;;8.93;3.70;;;;;;;-145.69;95.30;72518.88;5094598;28;20297;-79
2022/02/10 22:29:18;;;;;;;11.03;4.13;;;;;;;-145.69;95.95;72524.84;5094665;28;20202;-79
2022/02/10 22:32:07;;;;;;;9.50;3.70;;;;;;;-145.69;95.58;72508.91;5094693;28;20198;-79
2022/02/10 22:34:36;;;;;;;8.37;3.53;;;;;;;-145.69;95.44;72512.91;5094403;28;20629;-79
2022/02/10 22:37:05;;;;;;;11.37;3.90;;;;;;;-145.69;94.72;72500.94;5094218;28;20754;-77
2022/02/10 22:39:37;;;;;;;11.23;3.83;;;;;;;-145.69;94.93;72504.94;5094391;28;20565;-78
2022/02/10 22:42:05;;;;;;;11.47;3.80;;;;;;;-145.69;95.11;72506.91;5111015;28;20198;-77
2022/02/10 22:44:33;;;;;;;9.77;3.30;;;;;;;-145.69;96.01;72522.84;5114484;28;20205;-77
2022/02/10 22:47:01;;;;;;;10.67;3.33;;;;;;;-145.69;94.75;72491.00;5114307;28;20656;-77
2022/02/10 22:49:30;;;;;;;13.03;3.50;;;;;;;-145.69;94.32;72487.00;5114638;28;20296;-77
2022/02/10 22:51:57;;;;;;;11.10;3.60;;;;;;;-145.69;97.03;72496.97;5114129;28;20193;-77
2022/02/10 22:54:26;;;;;;;11.20;4.07;;;;;;;-145.69;95.89;72489.00;5114442;28;20201;-78
2022/02/10 22:56:53;;;;;;;10.03;3.47;;;;;;;-145.69;95.27;72483.03;5073370;28;20720;-77
2022/02/10 22:59:25;;;;;;;12.57;3.30;;;;;;;-145.69;95.68;72485.03;5073708;28;20328;-78
2022/02/10 23:01:55;;;;;;;13.43;4.03;;;;;;;-145.69;93.91;72457.16;5073754;28;20362;-78
2022/02/10 23:04:21;;;;;;;10.57;3.43;;;;;;;-145.69;95.33;72461.13;5073231;28;20241;-78
2022/02/10 23:06:55;;;;;;;9.17;3.70;;;;;;;-145.69;95.92;72469.09;5073541;28;20253;-78
2022/02/10 23:09:26;;;;;;;10.83;3.77;;;;;;;-145.69;96.25;72467.13;5073673;28;20204;-78
2022/02/10 23:11:53;;;;;;;12.17;3.50;;;;;;;-145.69;97.49;72465.13;5058412;28;20269;-78
2022/02/10 23:14:20;;;;;;;11.93;3.27;;;;;;;-145.69;97.16;72461.13;5053140;28;20200;-78
2022/02/10 23:16:46;;;;;;;12.60;4.10;;;;;;;-145.69;99.67;72469.09;5053187;28;20709;-77
2022/02/10 23:19:14;;;;;;;7.83;3.30;;;;;;;-145.69;100.00;72461.13;5053489;28;20207;-78
2022/02/10 23:21:41;;;;;;;14.35;4.05;;;;;;;-145.69;100.00;72457.16;5052654;28;20798;-77
2022/02/10 23:24:08;;;;;;;13.10;4.37;;;;;;;-145.69;100.00;72461.13;5053319;28;20195;-78
2022/02/10 23:26:34;;;;;;;12.57;3.83;;;;;;;-145.69;100.00;72473.09;5053223;28;20282;-77
2022/02/10 23:29:01;;;;;;;11.13;3.20;;;;;;;-145.69;100.00;72487.00;5053479;28;20207;-77
2022/02/10 23:31:29;;;;;;;11.17;4.43;;;;;;;-145.69;100.00;72496.97;5053241;28;20195;-77
2022/02/10 23:33:58;;;;;;;12.27;3.50;;;;;;;-145.69;100.00;72504.94;5053304;28;20195;-77
2022/02/10 23:39:18;;;;;;;11.43;3.33;;;;;;;-145.69;100.00;72502.94;5069926;28;20198;-77
2022/02/10 23:44:30;;;;;;;10.50;3.10;;;;;;;-145.69;100.00;72518.88;5053105;28;20199;-77
2022/02/10 23:46:58;;;;;;;6.80;2.90;;;;;;;-145.69;100.00;72508.91;5052599;28;20689;-77
2022/02/10 23:49:26;;;;;;;10.87;3.13;;;;;;;-145.69;100.00;72508.91;5052657;28;20207;-78
2022/02/10 23:51:58;;;;;;;8.50;3.13;;;;;;;-145.69;100.00;72520.84;5052708;28;20210;-77
2022/02/10 23:54:26;;;;;;;6.27;2.90;;;;;;;-145.69;100.00;72524.84;5052720;28;20203;-77
2022/02/10 23:56:58;;;;;;;10.53;2.73;;;;;;;-145.69;100.00;72520.84;5092613;28;20234;-77
2022/02/10 23:59:40;;;;;;;7.47;2.93;;;;;;;-145.69;100.00;72522.84;5092828;28;20656;-78
